Time;durP1;ratioP1;P1;durP2;ratioP2;P2;SDS_P1;SDS_P2;PMS_P1;PMS_P2;Temp;Humidity;BMP_temperature;BMP_pressure;BME280_temperature;BME280_humidity;BME280_pressure;Samples;Min_cycle;Max_cycle;Signal;HPM_P1;HPM_P2
2023/08/19 00:00:26;;;;;;;48.72;37.80;;;;;;;;;;5094202;28;20079;-58
2023/08/19 00:02:52;;;;;;;44.97;37.35;;;;;;;;;;5099331;28;20054;-59
2023/08/19 00:05:18;;;;;;;45.20;38.60;;;;;;;;;;5099105;28;20120;-58
2023/08/19 00:07:45;;;;;;;49.55;39.95;;;;;;;;;;5113500;27;20072;-59
2023/08/19 00:10:11;;;;;;;44.45;37.20;;;;;;;;;;5105505;28;20039;-58
2023/08/19 00:12:37;;;;;;;48.75;37.55;;;;;;;;;;5084645;28;20048;-58
2023/08/19 00:15:03;;;;;;;47.78;37.40;;;;;;;;;;5085109;28;20054;-59
2023/08/19 00:17:30;;;;;;;45.97;37.60;;;;;;;;;;5092253;28;20066;-59
2023/08/19 00:19:56;;;;;;;44.40;36.55;;;;;;;;;;5088408;28;20442;-59
2023/08/19 00:22:22;;;;;;;45.67;38.65;;;;;;;;;;5106256;28;20058;-58
2023/08/19 00:24:48;;;;;;;41.85;35.33;;;;;;;;;;5104442;28;20040;-58
2023/08/19 00:27:14;;;;;;;42.17;35.70;;;;;;;;;;5102198;28;20055;-58
2023/08/19 00:29:41;;;;;;;45.83;37.65;;;;;;;;;;5090082;28;20048;-59
2023/08/19 00:32:07;;;;;;;40.85;36.30;;;;;;;;;;5096744;28;20038;-58
2023/08/19 00:34:33;;;;;;;48.15;37.38;;;;;;;;;;5101044;28;20080;-59
2023/08/19 00:36:59;;;;;;;45.25;37.35;;;;;;;;;;5094925;28;20062;-58
2023/08/19 00:39:25;;;;;;;42.67;37.58;;;;;;;;;;5100749;28;20039;-59
2023/08/19 00:41:54;;;;;;;49.95;37.97;;;;;;;;;;5107045;28;20036;-59
2023/08/19 00:44:20;;;;;;;45.80;37.65;;;;;;;;;;5101642;28;20124;-59
2023/08/19 00:46:46;;;;;;;41.83;37.00;;;;;;;;;;5092417;28;20039;-59
2023/08/19 00:49:13;;;;;;;46.00;38.25;;;;;;;;;;5106891;28;20055;-58
2023/08/19 00:51:39;;;;;;;47.70;38.58;;;;;;;;;;5099050;28;20092;-59
2023/08/19 00:54:06;;;;;;;43.08;36.20;;;;;;;;;;5095016;28;20055;-59
2023/08/19 00:56:32;;;;;;;49.22;40.60;;;;;;;;;;5090538;28;20107;-58
2023/08/19 00:58:58;;;;;;;44.88;37.53;;;;;;;;;;5102376;28;20167;-58
2023/08/19 01:01:24;;;;;;;48.35;38.55;;;;;;;;;;5086872;28;20032;-59
2023/08/19 01:03:51;;;;;;;52.40;38.65;;;;;;;;;;5093660;28;20039;-59
2023/08/19 01:06:28;;;;;;;44.90;36.20;;;;;;;;;;5097182;28;20080;-59
2023/08/19 01:09:10;;;;;;;44.10;37.40;;;;;;;;;;5093768;28;20036;-59
2023/08/19 01:11:46;;;;;;;44.45;36.80;;;;;;;;;;5105989;28;20082;-58
2023/08/19 01:14:12;;;;;;;45.17;36.20;;;;;;;;;;5093540;28;20035;-59
2023/08/19 01:16:41;;;;;;;48.35;37.83;;;;;;;;;;5098727;28;20044;-58
2023/08/19 01:19:08;;;;;;;43.78;38.33;;;;;;;;;;5093765;28;20495;-59
2023/08/19 01:21:35;;;;;;;51.00;39.03;;;;;;;;;;5095171;28;20040;-59
2023/08/19 01:24:04;;;;;;;47.17;37.33;;;;;;;;;;5087925;28;20044;-59
2023/08/19 01:26:30;;;;;;;46.97;39.28;;;;;;;;;;5088144;28;20044;-59
2023/08/19 01:28:56;;;;;;;46.25;38.58;;;;;;;;;;5089138;28;20058;-59
2023/08/19 01:31:23;;;;;;;44.78;38.50;;;;;;;;;;5088388;28;20036;-58
2023/08/19 01:33:49;;;;;;;49.05;40.00;;;;;;;;;;5094957;28;20472;-59
2023/08/19 01:36:24;;;;;;;48.33;39.60;;;;;;;;;;5093031;28;20040;-59
2023/08/19 01:38:59;;;;;;;43.65;37.88;;;;;;;;;;5091905;28;20086;-58
2023/08/19 01:41:28;;;;;;;46.35;37.90;;;;;;;;;;5089139;28;20040;-58
2023/08/19 01:43:56;;;;;;;46.53;37.75;;;;;;;;;;5093322;28;20498;-58
2023/08/19 01:46:22;;;;;;;44.75;36.85;;;;;;;;;;5082776;28;20075;-58
2023/08/19 01:48:48;;;;;;;47.90;38.20;;;;;;;;;;5081193;28;20051;-58
2023/08/19 01:51:15;;;;;;;49.60;38.42;;;;;;;;;;5082330;28;20084;-58
2023/08/19 01:53:41;;;;;;;45.85;37.90;;;;;;;;;;5082968;28;20059;-58
2023/08/19 01:56:07;;;;;;;45.03;36.90;;;;;;;;;;5082316;28;20041;-59
2023/08/19 01:58:33;;;;;;;42.83;36.67;;;;;;;;;;5085352;28;20442;-59
2023/08/19 02:00:59;;;;;;;48.97;37.17;;;;;;;;;;5088711;28;20484;-58
2023/08/19 02:03:25;;;;;;;46.83;38.13;;;;;;;;;;5102692;28;20040;-60
2023/08/19 02:05:52;;;;;;;46.10;37.38;;;;;;;;;;5089381;28;20526;-58
2023/08/19 02:08:18;;;;;;;45.33;37.65;;;;;;;;;;5082597;28;20040;-58
2023/08/19 02:10:44;;;;;;;44.22;37.45;;;;;;;;;;5087848;28;20121;-58
2023/08/19 02:13:10;;;;;;;46.50;36.85;;;;;;;;;;5083968;28;20043;-59
2023/08/19 02:15:37;;;;;;;47.78;38.45;;;;;;;;;;5082960;28;20118;-58
2023/08/19 02:18:03;;;;;;;47.33;38.15;;;;;;;;;;5091794;28;20048;-59
2023/08/19 02:20:29;;;;;;;45.97;37.50;;;;;;;;;;5096146;28;20082;-58
2023/08/19 02:22:56;;;;;;;48.58;36.55;;;;;;;;;;5090823;28;20058;-58
2023/08/19 02:25:22;;;;;;;44.42;36.22;;;;;;;;;;5095102;28;20051;-59
2023/08/19 02:27:49;;;;;;;42.78;35.22;;;;;;;;;;5101362;28;20079;-58
2023/08/19 02:30:15;;;;;;;47.80;37.28;;;;;;;;;;5093470;28;20074;-58
2023/08/19 02:32:41;;;;;;;45.25;37.80;;;;;;;;;;5101686;28;20028;-58
2023/08/19 02:35:08;;;;;;;47.45;37.40;;;;;;;;;;5099711;28;20044;-59
2023/08/19 02:37:34;;;;;;;43.85;37.20;;;;;;;;;;5089095;28;20037;-59
2023/08/19 02:40:00;;;;;;;48.78;36.65;;;;;;;;;;5091928;28;20036;-58
2023/08/19 02:42:26;;;;;;;45.75;35.95;;;;;;;;;;5088178;28;20052;-58
2023/08/19 02:44:53;;;;;;;45.65;35.53;;;;;;;;;;5098984;28;20040;-59
2023/08/19 02:47:19;;;;;;;45.28;36.17;;;;;;;;;;5088308;28;20058;-59
2023/08/19 02:49:45;;;;;;;44.38;36.10;;;;;;;;;;5090519;28;20457;-59
2023/08/19 02:52:11;;;;;;;40.47;34.38;;;;;;;;;;5087073;28;20054;-58
2023/08/19 02:54:37;;;;;;;42.50;35.63;;;;;;;;;;5082543;28;20407;-59
2023/08/19 02:57:03;;;;;;;44.58;33.75;;;;;;;;;;5082723;28;20067;-59
2023/08/19 02:59:30;;;;;;;41.35;33.47;;;;;;;;;;5086835;28;20119;-58
2023/08/19 03:01:56;;;;;;;44.40;34.67;;;;;;;;;;5080380;28;20055;-58
2023/08/19 03:04:22;;;;;;;44.97;35.67;;;;;;;;;;5082282;28;20086;-59
2023/08/19 03:06:48;;;;;;;43.95;34.10;;;;;;;;;;5081398;28;20051;-59
2023/08/19 03:09:14;;;;;;;42.00;33.83;;;;;;;;;;5080569;28;20483;-58
2023/08/19 03:11:41;;;;;;;43.35;33.30;;;;;;;;;;5084963;28;20093;-58
2023/08/19 03:14:08;;;;;;;42.13;34.00;;;;;;;;;;5081525;28;20040;-59
2023/08/19 03:16:34;;;;;;;39.45;33.38;;;;;;;;;;5083067;28;20048;-58
2023/08/19 03:19:00;;;;;;;42.75;34.55;;;;;;;;;;5082618;28;20487;-58
2023/08/19 03:21:26;;;;;;;44.13;33.08;;;;;;;;;;5085050;28;20142;-58
2023/08/19 03:23:52;;;;;;;39.97;32.53;;;;;;;;;;5096986;28;20052;-59
2023/08/19 03:26:19;;;;;;;39.85;32.70;;;;;;;;;;5085957;28;20076;-58
2023/08/19 03:28:45;;;;;;;40.22;32.88;;;;;;;;;;5103270;28;20040;-58
2023/08/19 03:31:11;;;;;;;37.60;31.60;;;;;;;;;;5095310;28;20040;-58
2023/08/19 03:33:38;;;;;;;37.35;31.45;;;;;;;;;;5091823;28;20128;-58
2023/08/19 03:36:05;;;;;;;34.25;30.42;;;;;;;;;;5097062;28;20048;-58
2023/08/19 03:38:31;;;;;;;35.25;30.08;;;;;;;;;;5096709;28;20032;-59
2023/08/19 03:40:57;;;;;;;35.90;30.80;;;;;;;;;;5090760;28;20135;-59
2023/08/19 03:43:23;;;;;;;38.47;32.97;;;;;;;;;;5092005;28;20487;-59
2023/08/19 03:45:50;;;;;;;37.38;30.05;;;;;;;;;;5093195;28;20054;-59
2023/08/19 03:48:16;;;;;;;41.28;31.38;;;;;;;;;;5089125;28;20109;-59
2023/08/19 03:50:42;;;;;;;37.63;30.85;;;;;;;;;;5088850;28;20052;-58
2023/08/19 03:53:08;;;;;;;34.28;30.35;;;;;;;;;;5090502;28;20468;-59
2023/08/19 03:55:34;;;;;;;34.72;28.40;;;;;;;;;;5091828;28;20112;-59
2023/08/19 03:58:01;;;;;;;36.90;31.42;;;;;;;;;;5094608;28;20161;-58
2023/08/19 04:00:27;;;;;;;37.47;29.52;;;;;;;;;;5093826;28;20410;-59
2023/08/19 04:02:53;;;;;;;38.00;28.90;;;;;;;;;;5094877;28;20375;-58
2023/08/19 04:05:19;;;;;;;33.15;28.55;;;;;;;;;;5088318;28;20047;-59
2023/08/19 04:07:45;;;;;;;32.95;28.23;;;;;;;;;;5089768;28;20131;-58
2023/08/19 04:10:12;;;;;;;34.88;28.30;;;;;;;;;;5089919;28;20423;-58
2023/08/19 04:12:38;;;;;;;34.33;28.40;;;;;;;;;;5091658;28;20032;-58
2023/08/19 04:15:04;;;;;;;35.85;28.45;;;;;;;;;;5092140;28;20079;-58
2023/08/19 04:17:33;;;;;;;33.75;28.92;;;;;;;;;;5090429;28;20111;-58
2023/08/19 04:19:59;;;;;;;35.00;27.30;;;;;;;;;;5092290;28;20044;-58
2023/08/19 04:22:26;;;;;;;30.85;26.88;;;;;;;;;;5096632;28;20050;-58
2023/08/19 04:24:53;;;;;;;32.65;26.70;;;;;;;;;;5096584;28;20111;-59
2023/08/19 04:27:19;;;;;;;31.90;26.67;;;;;;;;;;5089826;28;20048;-58
2023/08/19 04:29:45;;;;;;;32.67;25.63;;;;;;;;;;5098801;28;20051;-58
2023/08/19 04:32:13;;;;;;;31.55;26.90;;;;;;;;;;5090978;28;20040;-58
2023/08/19 04:34:39;;;;;;;31.63;27.45;;;;;;;;;;5094855;28;20400;-58
2023/08/19 04:37:06;;;;;;;30.02;25.88;;;;;;;;;;5099920;28;20145;-58
2023/08/19 04:39:33;;;;;;;29.25;25.58;;;;;;;;;;5094940;28;20044;-59
2023/08/19 04:41:59;;;;;;;31.88;26.77;;;;;;;;;;5088553;28;20044;-59
2023/08/19 04:44:25;;;;;;;28.90;25.70;;;;;;;;;;5094695;28;20089;-58
2023/08/19 04:46:51;;;;;;;33.05;25.73;;;;;;;;;;5096991;28;20076;-58
2023/08/19 04:49:17;;;;;;;28.05;24.15;;;;;;;;;;5091746;28;20056;-58
2023/08/19 04:51:44;;;;;;;28.88;25.17;;;;;;;;;;5091347;28;20059;-59
2023/08/19 04:54:10;;;;;;;28.38;25.13;;;;;;;;;;5093428;28;20044;-58
2023/08/19 04:56:36;;;;;;;27.65;23.95;;;;;;;;;;5092117;28;20428;-59
2023/08/19 04:59:03;;;;;;;27.92;24.85;;;;;;;;;;5091135;28;20040;-59
2023/08/19 05:01:30;;;;;;;27.92;23.85;;;;;;;;;;5094131;28;20114;-58
2023/08/19 05:03:56;;;;;;;26.20;23.40;;;;;;;;;;5091474;28;20097;-58
2023/08/19 05:06:22;;;;;;;28.13;24.05;;;;;;;;;;5087255;28;20040;-58
2023/08/19 05:08:48;;;;;;;26.45;23.50;;;;;;;;;;5094714;28;20052;-59
2023/08/19 05:11:15;;;;;;;26.95;24.05;;;;;;;;;;5088481;28;20028;-58
2023/08/19 05:13:42;;;;;;;25.98;23.23;;;;;;;;;;5087870;28;20822;-58
2023/08/19 05:16:09;;;;;;;26.40;23.40;;;;;;;;;;5091656;28;20036;-58
2023/08/19 05:18:35;;;;;;;32.65;23.50;;;;;;;;;;5091448;28;20066;-58
2023/08/19 05:21:01;;;;;;;25.55;21.90;;;;;;;;;;5090184;28;20048;-58
2023/08/19 05:23:27;;;;;;;27.65;22.55;;;;;;;;;;5106554;28;20135;-58
2023/08/19 05:25:53;;;;;;;28.25;22.27;;;;;;;;;;5090476;28;20036;-58
2023/08/19 05:28:19;;;;;;;28.67;23.05;;;;;;;;;;5089622;28;20051;-58
2023/08/19 05:30:45;;;;;;;23.98;20.98;;;;;;;;;;5091351;28;20388;-58
2023/08/19 05:33:12;;;;;;;27.58;21.77;;;;;;;;;;5095759;28;20111;-59
2023/08/19 05:35:38;;;;;;;24.55;21.50;;;;;;;;;;5096367;28;20074;-59
2023/08/19 05:38:04;;;;;;;23.42;20.73;;;;;;;;;;5089878;28;20040;-59
2023/08/19 05:40:30;;;;;;;24.58;21.65;;;;;;;;;;5094188;28;20510;-58
2023/08/19 05:42:56;;;;;;;27.10;21.85;;;;;;;;;;5088035;28;20043;-59
2023/08/19 05:45:22;;;;;;;23.63;20.00;;;;;;;;;;5091104;28;20040;-59
2023/08/19 05:47:49;;;;;;;25.38;20.48;;;;;;;;;;5090884;28;20135;-58
2023/08/19 05:50:15;;;;;;;23.17;19.98;;;;;;;;;;5088327;28;20517;-59
2023/08/19 05:52:41;;;;;;;25.65;19.88;;;;;;;;;;5090622;28;20123;-59
2023/08/19 05:55:08;;;;;;;23.80;19.85;;;;;;;;;;5100020;28;20460;-58
2023/08/19 05:57:34;;;;;;;24.88;19.73;;;;;;;;;;5088286;28;20195;-58
2023/08/19 06:00:00;;;;;;;27.33;19.38;;;;;;;;;;5090562;28;20047;-58
2023/08/19 06:02:26;;;;;;;22.88;19.10;;;;;;;;;;5089609;28;20047;-58
2023/08/19 06:04:52;;;;;;;21.45;19.08;;;;;;;;;;5091429;28;20044;-58
2023/08/19 06:07:25;;;;;;;22.65;18.08;;;;;;;;;;5088978;28;20085;-58
2023/08/19 06:09:51;;;;;;;21.73;19.02;;;;;;;;;;5094593;28;20086;-58
2023/08/19 06:12:17;;;;;;;22.98;18.38;;;;;;;;;;5088119;28;20082;-59
2023/08/19 06:14:44;;;;;;;23.63;18.00;;;;;;;;;;5091770;28;20054;-58
2023/08/19 06:17:10;;;;;;;21.65;18.92;;;;;;;;;;5088462;28;20051;-59
2023/08/19 06:19:36;;;;;;;22.02;18.20;;;;;;;;;;5086927;28;20429;-59
2023/08/19 06:22:02;;;;;;;22.77;18.50;;;;;;;;;;5089132;28;20036;-59
2023/08/19 06:24:28;;;;;;;18.55;16.55;;;;;;;;;;5090003;28;20143;-59
2023/08/19 06:26:54;;;;;;;20.95;17.17;;;;;;;;;;5086597;28;20036;-59
2023/08/19 06:29:21;;;;;;;22.90;17.80;;;;;;;;;;5082540;28;20043;-59
2023/08/19 06:31:47;;;;;;;21.65;17.50;;;;;;;;;;5083960;28;20459;-59
2023/08/19 06:34:13;;;;;;;20.65;17.05;;;;;;;;;;5087173;28;20041;-59
2023/08/19 06:36:41;;;;;;;20.48;17.23;;;;;;;;;;5089200;28;20039;-59
2023/08/19 06:39:08;;;;;;;22.20;16.90;;;;;;;;;;5087013;28;20111;-59
2023/08/19 06:41:38;;;;;;;19.85;16.58;;;;;;;;;;5094404;28;20077;-59
2023/08/19 06:44:06;;;;;;;22.05;17.33;;;;;;;;;;5096760;28;20069;-59
2023/08/19 06:46:32;;;;;;;20.98;17.08;;;;;;;;;;5088299;28;20119;-59
2023/08/19 06:48:59;;;;;;;21.15;17.45;;;;;;;;;;5090215;28;20146;-59
2023/08/19 06:51:27;;;;;;;22.80;17.60;;;;;;;;;;5087359;28;20081;-59
2023/08/19 06:53:54;;;;;;;19.85;17.45;;;;;;;;;;5089262;28;20059;-59
2023/08/19 06:56:29;;;;;;;22.42;18.10;;;;;;;;;;5087319;28;20377;-59
2023/08/19 06:58:59;;;;;;;24.05;18.23;;;;;;;;;;5086519;28;20052;-59
2023/08/19 07:01:27;;;;;;;18.92;16.92;;;;;;;;;;5093684;28;20071;-59
2023/08/19 07:03:53;;;;;;;23.05;17.92;;;;;;;;;;5102260;28;20522;-59
2023/08/19 07:06:23;;;;;;;22.25;16.17;;;;;;;;;;5106937;28;20070;-59
2023/08/19 07:08:50;;;;;;;18.50;16.42;;;;;;;;;;5088253;28;20474;-59
2023/08/19 07:11:17;;;;;;;19.63;14.98;;;;;;;;;;5100436;28;20040;-59
2023/08/19 07:13:43;;;;;;;19.88;15.27;;;;;;;;;;5089736;28;20063;-58
2023/08/19 07:16:11;;;;;;;17.42;13.75;;;;;;;;;;5105793;28;20073;-58
2023/08/19 07:18:41;;;;;;;18.55;15.23;;;;;;;;;;5114046;28;20059;-58
2023/08/19 07:21:12;;;;;;;23.48;14.05;;;;;;;;;;5108148;28;20172;-58
2023/08/19 07:23:40;;;;;;;19.52;13.50;;;;;;;;;;5096326;28;20036;-58
2023/08/19 07:26:06;;;;;;;18.95;13.00;;;;;;;;;;5107475;28;20040;-58
2023/08/19 07:28:33;;;;;;;15.90;12.75;;;;;;;;;;5097337;28;20066;-58
2023/08/19 07:31:00;;;;;;;15.23;12.18;;;;;;;;;;5093391;28;20044;-58
2023/08/19 07:33:26;;;;;;;17.83;12.43;;;;;;;;;;5093266;28;20043;-58
2023/08/19 07:35:52;;;;;;;18.55;13.10;;;;;;;;;;5090710;28;20126;-58
2023/08/19 07:38:19;;;;;;;19.10;13.60;;;;;;;;;;5092370;28;20417;-58
2023/08/19 07:40:45;;;;;;;18.77;14.02;;;;;;;;;;5091796;28;20134;-58
2023/08/19 07:43:11;;;;;;;16.42;12.52;;;;;;;;;;5092694;28;20028;-57
2023/08/19 07:45:37;;;;;;;16.00;12.43;;;;;;;;;;5092803;28;20040;-58
2023/08/19 07:48:03;;;;;;;16.48;12.20;;;;;;;;;;5092656;28;20124;-57
2023/08/19 07:50:30;;;;;;;17.20;13.32;;;;;;;;;;5092540;28;20476;-57
2023/08/19 07:52:56;;;;;;;16.63;11.65;;;;;;;;;;5092820;28;20502;-58
2023/08/19 07:55:22;;;;;;;17.05;10.82;;;;;;;;;;5089181;28;20040;-59
2023/08/19 07:57:50;;;;;;;15.13;11.68;;;;;;;;;;5093075;28;20044;-59
2023/08/19 08:00:16;;;;;;;14.30;10.65;;;;;;;;;;5090952;28;20055;-59
2023/08/19 08:02:42;;;;;;;19.85;12.05;;;;;;;;;;5089317;28;20036;-59
2023/08/19 08:05:09;;;;;;;14.07;11.18;;;;;;;;;;5091160;28;20040;-58
2023/08/19 08:07:36;;;;;;;14.02;11.23;;;;;;;;;;5089998;28;20052;-58
2023/08/19 08:10:05;;;;;;;14.93;11.80;;;;;;;;;;5089822;28;20100;-58
2023/08/19 08:12:31;;;;;;;15.38;11.07;;;;;;;;;;5090631;28;20455;-59
2023/08/19 08:15:00;;;;;;;16.23;11.93;;;;;;;;;;5090595;28;20077;-58
2023/08/19 08:17:26;;;;;;;14.18;10.98;;;;;;;;;;5087771;28;20502;-58
2023/08/19 08:19:52;;;;;;;16.00;11.70;;;;;;;;;;5088473;28;20464;-58
2023/08/19 08:22:19;;;;;;;14.15;11.73;;;;;;;;;;5088699;28;20036;-59
2023/08/19 08:24:45;;;;;;;13.63;12.15;;;;;;;;;;5101115;28;20048;-59
2023/08/19 08:27:13;;;;;;;16.33;10.88;;;;;;;;;;5091509;28;20115;-59
2023/08/19 08:29:39;;;;;;;14.43;10.88;;;;;;;;;;5090103;28;20126;-58
2023/08/19 08:32:05;;;;;;;12.55;10.18;;;;;;;;;;5090043;28;20237;-59
2023/08/19 08:34:31;;;;;;;15.40;10.70;;;;;;;;;;5094357;28;20051;-60
2023/08/19 08:36:57;;;;;;;13.48;10.13;;;;;;;;;;5112713;28;20075;-60
2023/08/19 08:39:24;;;;;;;14.20;10.85;;;;;;;;;;5095532;28;20047;-60
2023/08/19 08:41:50;;;;;;;16.33;10.90;;;;;;;;;;5112654;28;20044;-60
2023/08/19 08:44:17;;;;;;;16.08;10.82;;;;;;;;;;5099178;28;20040;-60
2023/08/19 08:46:44;;;;;;;12.60;10.10;;;;;;;;;;5105787;28;20039;-60
2023/08/19 08:49:10;;;;;;;15.95;10.95;;;;;;;;;;5090160;28;20056;-60
2023/08/19 08:51:36;;;;;;;12.50;10.77;;;;;;;;;;5092250;28;20156;-60
2023/08/19 08:54:03;;;;;;;12.23;10.32;;;;;;;;;;5106659;28;20120;-60
2023/08/19 08:56:29;;;;;;;15.32;11.02;;;;;;;;;;5110547;28;20048;-60
2023/08/19 08:58:55;;;;;;;13.95;10.80;;;;;;;;;;5098974;28;20426;-60
2023/08/19 09:01:24;;;;;;;19.60;12.20;;;;;;;;;;5101199;27;20194;-60
2023/08/19 09:03:51;;;;;;;15.98;11.40;;;;;;;;;;5084186;28;20043;-59
2023/08/19 09:06:18;;;;;;;13.50;11.18;;;;;;;;;;5096083;28;20047;-60
2023/08/19 09:08:56;;;;;;;13.32;10.63;;;;;;;;;;5095849;28;20040;-60
2023/08/19 09:11:25;;;;;;;17.58;11.02;;;;;;;;;;5088183;28;20165;-59
2023/08/19 09:14:12;;;;;;;15.98;11.45;;;;;;;;;;5109889;28;20053;-60
2023/08/19 09:16:38;;;;;;;13.98;11.02;;;;;;;;;;5072537;28;20622;-60
2023/08/19 09:19:04;;;;;;;14.05;11.85;;;;;;;;;;5085345;28;20035;-60
2023/08/19 09:21:31;;;;;;;13.85;11.10;;;;;;;;;;5089850;28;20040;-60
2023/08/19 09:23:59;;;;;;;13.35;10.98;;;;;;;;;;5094104;28;20035;-60
2023/08/19 09:26:25;;;;;;;14.68;11.82;;;;;;;;;;5085378;28;20092;-60
2023/08/19 09:28:56;;;;;;;14.73;11.82;;;;;;;;;;5093015;28;20036;-60
2023/08/19 09:31:24;;;;;;;14.43;12.73;;;;;;;;;;5083514;28;20054;-60
2023/08/19 09:33:52;;;;;;;13.50;10.65;;;;;;;;;;5097854;28;20040;-60
2023/08/19 09:36:18;;;;;;;13.38;11.98;;;;;;;;;;5091181;28;20044;-60
2023/08/19 09:38:44;;;;;;;13.05;11.00;;;;;;;;;;5090270;28;20047;-60
2023/08/19 09:41:11;;;;;;;15.63;11.38;;;;;;;;;;5090095;28;20032;-60
2023/08/19 09:43:40;;;;;;;30.52;11.98;;;;;;;;;;5089716;28;20048;-61
2023/08/19 09:46:07;;;;;;;17.92;13.18;;;;;;;;;;5091015;28;20052;-60
2023/08/19 09:48:35;;;;;;;17.30;13.63;;;;;;;;;;5086884;28;20479;-60
2023/08/19 09:51:02;;;;;;;19.40;13.48;;;;;;;;;;5090211;28;20060;-60
2023/08/19 09:53:30;;;;;;;17.45;12.82;;;;;;;;;;5091061;28;20044;-60
2023/08/19 09:55:57;;;;;;;18.58;13.82;;;;;;;;;;5090295;28;20074;-60
2023/08/19 09:58:25;;;;;;;23.40;14.48;;;;;;;;;;5090808;28;20039;-60
2023/08/19 10:00:51;;;;;;;19.77;13.48;;;;;;;;;;5090653;28;20063;-60
2023/08/19 10:03:17;;;;;;;18.75;13.90;;;;;;;;;;5088035;28;20033;-60
2023/08/19 10:05:45;;;;;;;20.38;14.52;;;;;;;;;;5090962;28;20051;-60
2023/08/19 10:08:17;;;;;;;17.88;14.00;;;;;;;;;;5088915;28;20047;-60
2023/08/19 10:10:45;;;;;;;16.70;13.25;;;;;;;;;;5089611;28;20048;-61
2023/08/19 10:13:12;;;;;;;18.63;14.52;;;;;;;;;;5087904;28;20066;-60
2023/08/19 10:15:41;;;;;;;19.42;14.63;;;;;;;;;;5090459;28;20071;-60
2023/08/19 10:18:23;;;;;;;20.38;14.55;;;;;;;;;;5089915;28;20082;-60
2023/08/19 10:20:56;;;;;;;16.87;15.10;;;;;;;;;;5078451;28;20105;-61
2023/08/19 10:23:23;;;;;;;18.13;16.00;;;;;;;;;;5085780;28;20036;-60
2023/08/19 10:25:49;;;;;;;20.52;18.33;;;;;;;;;;5085226;28;20059;-60
2023/08/19 10:28:25;;;;;;;25.25;17.45;;;;;;;;;;5089623;28;20051;-60
2023/08/19 10:31:12;;;;;;;20.30;16.50;;;;;;;;;;5089329;28;20116;-60
2023/08/19 10:33:49;;;;;;;21.63;16.90;;;;;;;;;;5090274;28;20055;-60
2023/08/19 10:36:16;;;;;;;21.30;17.58;;;;;;;;;;5097649;28;20044;-60
2023/08/19 10:38:42;;;;;;;23.75;18.70;;;;;;;;;;5097561;28;20035;-65
2023/08/19 10:41:19;;;;;;;25.60;19.90;;;;;;;;;;5090814;28;20044;-60
2023/08/19 10:43:59;;;;;;;22.33;19.20;;;;;;;;;;5096724;28;20044;-60
2023/08/19 10:46:31;;;;;;;20.70;18.60;;;;;;;;;;5100803;28;20426;-60
2023/08/19 10:48:57;;;;;;;23.87;20.97;;;;;;;;;;5098613;28;20102;-60
2023/08/19 10:51:43;;;;;;;24.52;20.58;;;;;;;;;;5101779;27;20389;-60
2023/08/19 10:54:10;;;;;;;25.85;20.65;;;;;;;;;;5095525;28;20491;-60
2023/08/19 10:56:36;;;;;;;24.48;21.48;;;;;;;;;;5092328;28;20039;-60
2023/08/19 10:59:02;;;;;;;24.25;21.13;;;;;;;;;;5091387;28;20084;-60
2023/08/19 11:01:32;;;;;;;26.02;22.65;;;;;;;;;;5093488;28;20146;-60
2023/08/19 11:03:59;;;;;;;27.05;22.25;;;;;;;;;;5083084;28;20112;-60
2023/08/19 11:06:32;;;;;;;31.95;23.52;;;;;;;;;;5092414;28;20467;-60
2023/08/19 11:09:01;;;;;;;27.08;23.70;;;;;;;;;;5092763;28;20130;-60
2023/08/19 11:11:27;;;;;;;27.33;24.33;;;;;;;;;;5093109;28;20496;-59
2023/08/19 11:13:55;;;;;;;29.60;25.58;;;;;;;;;;5092105;28;20500;-60
2023/08/19 11:16:27;;;;;;;30.30;26.80;;;;;;;;;;5092193;28;20040;-59
2023/08/19 11:18:54;;;;;;;32.63;27.23;;;;;;;;;;5094085;28;20083;-59
2023/08/19 11:21:20;;;;;;;33.60;29.48;;;;;;;;;;5091155;28;20055;-61
2023/08/19 11:23:46;;;;;;;41.42;33.10;;;;;;;;;;5090309;28;20044;-60
2023/08/19 11:26:13;;;;;;;41.50;33.00;;;;;;;;;;5093593;28;20432;-60
2023/08/19 11:28:39;;;;;;;46.67;36.40;;;;;;;;;;5092671;28;20450;-59
2023/08/19 11:31:06;;;;;;;58.55;42.28;;;;;;;;;;5090448;28;20044;-59
2023/08/19 11:33:32;;;;;;;47.20;36.28;;;;;;;;;;5093107;28;20063;-58
2023/08/19 11:35:58;;;;;;;43.38;35.40;;;;;;;;;;5092276;28;20400;-60
2023/08/19 11:38:24;;;;;;;46.22;35.53;;;;;;;;;;5092470;28;20348;-60
2023/08/19 11:40:54;;;;;;;48.05;36.33;;;;;;;;;;5092458;28;20047;-60
2023/08/19 11:43:23;;;;;;;46.78;35.30;;;;;;;;;;5092206;28;20036;-58
2023/08/19 11:45:50;;;;;;;48.92;34.78;;;;;;;;;;5088436;28;20173;-60
2023/08/19 11:48:16;;;;;;;44.15;33.72;;;;;;;;;;5088038;28;20051;-60
2023/08/19 11:50:50;;;;;;;33.53;26.65;;;;;;;;;;5093192;28;20074;-60
2023/08/19 11:53:25;;;;;;;32.50;26.20;;;;;;;;;;5097704;28;20051;-60
2023/08/19 11:55:57;;;;;;;34.65;24.85;;;;;;;;;;5098821;28;20047;-60
2023/08/19 11:58:44;;;;;;;31.43;23.97;;;;;;;;;;5090533;28;20044;-60
2023/08/19 12:01:10;;;;;;;29.63;21.30;;;;;;;;;;5083064;28;20071;-60
2023/08/19 12:03:36;;;;;;;26.77;18.45;;;;;;;;;;5087479;28;20052;-59
2023/08/19 12:06:02;;;;;;;22.90;16.90;;;;;;;;;;5090106;28;20040;-72
2023/08/19 12:08:30;;;;;;;23.52;17.55;;;;;;;;;;5078967;28;20048;-60
2023/08/19 12:10:56;;;;;;;22.10;16.92;;;;;;;;;;5092988;28;20078;-60
2023/08/19 12:13:23;;;;;;;25.17;16.23;;;;;;;;;;5091572;28;20122;-60
2023/08/19 12:15:49;;;;;;;19.90;14.55;;;;;;;;;;5090462;28;20499;-60
2023/08/19 12:18:16;;;;;;;17.65;13.13;;;;;;;;;;5090669;28;20130;-60
2023/08/19 12:20:43;;;;;;;19.73;14.00;;;;;;;;;;5091933;28;20117;-60
2023/08/19 12:23:09;;;;;;;17.05;12.63;;;;;;;;;;5090639;28;20040;-60
2023/08/19 12:25:48;;;;;;;18.52;12.50;;;;;;;;;;5092535;28;20060;-60
2023/08/19 12:28:14;;;;;;;17.13;11.25;;;;;;;;;;5092543;28;20078;-60
2023/08/19 12:30:41;;;;;;;14.20;9.27;;;;;;;;;;5088180;28;20044;-60
2023/08/19 12:33:07;;;;;;;13.65;8.65;;;;;;;;;;5092276;28;20043;-60
2023/08/19 12:35:35;;;;;;;11.35;8.27;;;;;;;;;;5074465;28;20159;-60
2023/08/19 12:38:03;;;;;;;15.20;8.77;;;;;;;;;;5090452;28;20036;-60
2023/08/19 12:40:29;;;;;;;12.68;7.78;;;;;;;;;;5092255;28;20048;-60
2023/08/19 12:42:56;;;;;;;11.88;7.03;;;;;;;;;;5092165;28;20044;-60
2023/08/19 12:45:22;;;;;;;11.63;6.20;;;;;;;;;;5094567;28;20040;-60
2023/08/19 12:47:48;;;;;;;12.23;7.28;;;;;;;;;;5091903;28;20083;-60
2023/08/19 12:50:15;;;;;;;10.65;7.45;;;;;;;;;;5091713;28;20487;-60
2023/08/19 12:52:42;;;;;;;10.73;7.25;;;;;;;;;;5091582;28;20046;-60
2023/08/19 12:55:08;;;;;;;11.05;7.22;;;;;;;;;;5090037;28;20104;-69
2023/08/19 12:57:42;;;;;;;14.38;6.85;;;;;;;;;;5094839;28;20040;-69
2023/08/19 13:00:14;;;;;;;11.02;5.78;;;;;;;;;;5089708;28;20040;-60
2023/08/19 13:02:40;;;;;;;10.88;5.30;;;;;;;;;;5089690;28;20040;-60
2023/08/19 13:05:07;;;;;;;12.50;4.75;;;;;;;;;;5091226;28;20494;-60
2023/08/19 13:07:34;;;;;;;9.32;4.22;;;;;;;;;;5090608;28;20039;-60
2023/08/19 13:10:00;;;;;;;10.27;5.10;;;;;;;;;;5091513;28;20054;-60
2023/08/19 13:12:27;;;;;;;11.65;4.68;;;;;;;;;;5088357;28;20040;-60
2023/08/19 13:14:53;;;;;;;7.95;4.15;;;;;;;;;;5095764;28;20542;-60
2023/08/19 13:17:19;;;;;;;8.63;3.70;;;;;;;;;;5091551;28;20044;-60
2023/08/19 13:19:45;;;;;;;8.18;3.97;;;;;;;;;;5086021;28;20078;-60
2023/08/19 13:22:12;;;;;;;8.57;3.80;;;;;;;;;;5091590;28;20102;-60
2023/08/19 13:24:38;;;;;;;10.88;3.88;;;;;;;;;;5095577;28;20138;-60
2023/08/19 13:27:04;;;;;;;10.85;3.75;;;;;;;;;;5090440;28;20117;-60
2023/08/19 13:29:30;;;;;;;10.02;3.30;;;;;;;;;;5092738;28;20043;-60
2023/08/19 13:31:57;;;;;;;9.30;2.97;;;;;;;;;;5091298;28;20043;-60
2023/08/19 13:34:23;;;;;;;8.27;2.97;;;;;;;;;;5088606;28;20043;-70
2023/08/19 13:36:49;;;;;;;7.70;2.13;;;;;;;;;;5100386;28;20401;-60
2023/08/19 13:39:15;;;;;;;6.82;2.80;;;;;;;;;;5090513;28;20074;-60
2023/08/19 13:41:41;;;;;;;8.43;2.33;;;;;;;;;;5090443;28;20445;-60
2023/08/19 13:44:07;;;;;;;5.70;2.33;;;;;;;;;;5090223;28;20036;-59
2023/08/19 13:46:34;;;;;;;7.93;2.35;;;;;;;;;;5087459;28;20079;-60
2023/08/19 13:49:00;;;;;;;7.47;2.67;;;;;;;;;;5092925;28;20051;-60
2023/08/19 13:51:26;;;;;;;8.45;2.75;;;;;;;;;;5090934;28;20055;-60
2023/08/19 13:53:52;;;;;;;8.32;2.90;;;;;;;;;;5088925;28;20476;-59
2023/08/19 13:56:18;;;;;;;9.32;2.88;;;;;;;;;;5088674;28;20070;-59
2023/08/19 13:58:45;;;;;;;5.50;2.60;;;;;;;;;;5088222;28;20073;-59
2023/08/19 14:01:11;;;;;;;9.32;3.70;;;;;;;;;;5089830;28;20044;-59
2023/08/19 14:03:37;;;;;;;9.93;3.20;;;;;;;;;;5089252;28;20062;-59
2023/08/19 14:06:05;;;;;;;12.27;3.92;;;;;;;;;;5090788;28;20127;-59
2023/08/19 14:08:35;;;;;;;12.57;4.25;;;;;;;;;;5089960;28;20499;-59
2023/08/19 14:11:02;;;;;;;11.95;4.82;;;;;;;;;;5088558;28;20119;-59
2023/08/19 14:13:28;;;;;;;10.18;4.65;;;;;;;;;;5081598;28;20071;-59
2023/08/19 14:15:55;;;;;;;11.50;5.72;;;;;;;;;;5091021;28;20454;-59
2023/08/19 14:18:21;;;;;;;11.85;5.20;;;;;;;;;;5091714;28;20135;-60